sensor_id;sensor_type;location;lat;lon;timestamp;pressure;altitude;pressure_sealevel;temperature;humidity
57234;BME280;43090;52.604;13.318;2023-04-25T00:01:48;100010.69;;;9.84;70.15
57234;BME280;43090;52.604;13.318;2023-04-25T00:04:14;100008.50;;;9.67;72.56
57234;BME280;43090;52.604;13.318;2023-04-25T00:06:42;100025.41;;;9.90;70.83
57234;BME280;43090;52.604;13.318;2023-04-25T00:09:09;100016.63;;;9.88;70.86
57234;BME280;43090;52.604;13.318;2023-04-25T00:11:36;100017.34;;;10.13;70.75
57234;BME280;43090;52.604;13.318;2023-04-25T00:14:03;100008.00;;;10.07;71.93
57234;BME280;43090;52.604;13.318;2023-04-25T00:16:30;100014.44;;;9.93;71.43
57234;BME280;43090;52.604;13.318;2023-04-25T00:19:01;100011.38;;;10.32;72.62
57234;BME280;43090;52.604;13.318;2023-04-25T00:21:28;100020.22;;;10.32;72.30
57234;BME280;43090;52.604;13.318;2023-04-25T00:23:55;100019.31;;;10.11;70.10
57234;BME280;43090;52.604;13.318;2023-04-25T00:26:22;100033.03;;;10.17;68.68
57234;BME280;43090;52.604;13.318;2023-04-25T00:28:49;100006.16;;;10.08;71.58
57234;BME280;43090;52.604;13.318;2023-04-25T00:31:15;100015.28;;;10.05;69.31
57234;BME280;43090;52.604;13.318;2023-04-25T00:33:42;100025.09;;;10.27;68.97
57234;BME280;43090;52.604;13.318;2023-04-25T00:36:08;100008.13;;;9.94;68.23
57234;BME280;43090;52.604;13.318;2023-04-25T00:38:35;100012.63;;;9.94;68.70
57234;BME280;43090;52.604;13.318;2023-04-25T00:41:02;100012.50;;;9.95;69.74
57234;BME280;43090;52.604;13.318;2023-04-25T00:43:30;99989.06;;;9.99;68.48
57234;BME280;43090;52.604;13.318;2023-04-25T00:45:57;100003.00;;;10.03;67.84
57234;BME280;43090;52.604;13.318;2023-04-25T00:48:23;100019.31;;;9.77;68.25
57234;BME280;43090;52.604;13.318;2023-04-25T00:50:55;100010.69;;;9.84;71.34
57234;BME280;43090;52.604;13.318;2023-04-25T00:53:24;100010.56;;;9.86;69.16
57234;BME280;43090;52.604;13.318;2023-04-25T00:55:51;100011.19;;;9.78;68.44
57234;BME280;43090;52.604;13.318;2023-04-25T00:58:20;100009.25;;;9.80;68.70
57234;BME280;43090;52.604;13.318;2023-04-25T01:00:48;100003.28;;;9.65;71.16
57234;BME280;43090;52.604;13.318;2023-04-25T01:03:16;100008.75;;;9.98;71.26
57234;BME280;43090;52.604;13.318;2023-04-25T01:05:43;100003.50;;;9.85;69.13
57234;BME280;43090;52.604;13.318;2023-04-25T01:08:10;99994.50;;;10.09;69.31
57234;BME280;43090;52.604;13.318;2023-04-25T01:10:36;100006.31;;;9.72;68.42
57234;BME280;43090;52.604;13.318;2023-04-25T01:13:03;100002.41;;;9.76;69.11
57234;BME280;43090;52.604;13.318;2023-04-25T01:15:30;99985.91;;;9.71;69.92
57234;BME280;43090;52.604;13.318;2023-04-25T01:17:57;100009.47;;;9.77;69.24
57234;BME280;43090;52.604;13.318;2023-04-25T01:20:24;100004.13;;;9.77;69.40
57234;BME280;43090;52.604;13.318;2023-04-25T01:22:53;99996.38;;;9.86;69.00
57234;BME280;43090;52.604;13.318;2023-04-25T01:25:22;99992.72;;;9.75;69.38
57234;BME280;43090;52.604;13.318;2023-04-25T01:27:48;99985.28;;;9.56;70.06
57234;BME280;43090;52.604;13.318;2023-04-25T01:30:15;99986.53;;;9.63;68.97
57234;BME280;43090;52.604;13.318;2023-04-25T01:32:42;99999.66;;;9.78;69.14
57234;BME280;43090;52.604;13.318;2023-04-25T01:50:23;100004.06;;;8.74;75.75
57234;BME280;43090;52.604;13.318;2023-04-25T01:52:49;99987.41;;;9.06;73.34
57234;BME280;43090;52.604;13.318;2023-04-25T01:55:16;99997.06;;;9.31;72.59
57234;BME280;43090;52.604;13.318;2023-04-25T01:57:43;99991.34;;;9.24;72.59
57234;BME280;43090;52.604;13.318;2023-04-25T02:00:10;99993.53;;;9.42;73.46
57234;BME280;43090;52.604;13.318;2023-04-25T02:02:37;99999.50;;;9.45;70.84
57234;BME280;43090;52.604;13.318;2023-04-25T02:05:04;99992.94;;;9.49;71.63
57234;BME280;43090;52.604;13.318;2023-04-25T02:07:31;99995.97;;;9.56;72.65
57234;BME280;43090;52.604;13.318;2023-04-25T02:09:58;99987.72;;;9.48;69.79
57234;BME280;43090;52.604;13.318;2023-04-25T02:12:24;99995.13;;;9.78;71.51
57234;BME280;43090;52.604;13.318;2023-04-25T02:14:52;99987.00;;;9.57;70.14
57234;BME280;43090;52.604;13.318;2023-04-25T02:17:19;99996.97;;;9.66;71.82
57234;BME280;43090;52.604;13.318;2023-04-25T02:19:45;99993.91;;;9.48;72.54
57234;BME280;43090;52.604;13.318;2023-04-25T02:22:12;99993.03;;;9.37;71.88
57234;BME280;43090;52.604;13.318;2023-04-25T02:24:39;99986.28;;;9.55;71.04
57234;BME280;43090;52.604;13.318;2023-04-25T02:27:05;99985.78;;;9.61;71.83
57234;BME280;43090;52.604;13.318;2023-04-25T02:29:32;99984.31;;;9.57;71.92
57234;BME280;43090;52.604;13.318;2023-04-25T02:31:58;99978.72;;;9.60;71.29
57234;BME280;43090;52.604;13.318;2023-04-25T02:34:25;99990.03;;;9.64;69.87
57234;BME280;43090;52.604;13.318;2023-04-25T02:36:51;99992.94;;;9.72;69.96
57234;BME280;43090;52.604;13.318;2023-04-25T02:39:18;99992.72;;;9.53;69.97
57234;BME280;43090;52.604;13.318;2023-04-25T02:41:44;99995.75;;;9.48;71.03
57234;BME280;43090;52.604;13.318;2023-04-25T02:44:13;99991.88;;;9.63;70.86
57234;BME280;43090;52.604;13.318;2023-04-25T02:46:40;99984.94;;;9.38;70.99
57234;BME280;43090;52.604;13.318;2023-04-25T02:49:06;99992.31;;;9.23;71.67
57234;BME280;43090;52.604;13.318;2023-04-25T02:51:33;99996.59;;;9.60;70.97
57234;BME280;43090;52.604;13.318;2023-04-25T02:53:59;99991.09;;;9.27;71.87
57234;BME280;43090;52.604;13.318;2023-04-25T02:56:26;99995.72;;;9.37;71.35
57234;BME280;43090;52.604;13.318;2023-04-25T02:58:53;99991.72;;;9.31;73.22
57234;BME280;43090;52.604;13.318;2023-04-25T03:01:20;99993.38;;;9.09;72.05
57234;BME280;43090;52.604;13.318;2023-04-25T03:03:46;99975.56;;;9.21;71.40
57234;BME280;43090;52.604;13.318;2023-04-25T03:06:13;99993.81;;;9.61;70.93
57234;BME280;43090;52.604;13.318;2023-04-25T03:08:40;99993.44;;;9.55;72.86
57234;BME280;43090;52.604;13.318;2023-04-25T03:11:07;99995.75;;;9.59;70.89
57234;BME280;43090;52.604;13.318;2023-04-25T03:13:33;99995.00;;;9.34;71.34
57234;BME280;43090;52.604;13.318;2023-04-25T03:16:00;99990.66;;;9.45;69.82
57234;BME280;43090;52.604;13.318;2023-04-25T03:18:27;99992.59;;;9.31;71.34
57234;BME280;43090;52.604;13.318;2023-04-25T03:20:53;99994.25;;;9.32;70.62
57234;BME280;43090;52.604;13.318;2023-04-25T03:23:20;99990.88;;;9.42;71.64
57234;BME280;43090;52.604;13.318;2023-04-25T03:25:47;99995.97;;;9.22;72.64
57234;BME280;43090;52.604;13.318;2023-04-25T03:28:16;99986.38;;;9.20;72.34
57234;BME280;43090;52.604;13.318;2023-04-25T03:30:42;99981.38;;;9.15;71.79
57234;BME280;43090;52.604;13.318;2023-04-25T03:33:09;100000.47;;;9.33;71.58
57234;BME280;43090;52.604;13.318;2023-04-25T03:35:35;100006.72;;;9.09;71.15
57234;BME280;43090;52.604;13.318;2023-04-25T03:38:02;99991.09;;;9.16;74.09
57234;BME280;43090;52.604;13.318;2023-04-25T03:40:28;99999.09;;;9.27;72.07
57234;BME280;43090;52.604;13.318;2023-04-25T03:42:55;99996.44;;;9.27;73.59
57234;BME280;43090;52.604;13.318;2023-04-25T03:45:21;99987.69;;;9.37;73.53
57234;BME280;43090;52.604;13.318;2023-04-25T03:47:47;99990.06;;;9.53;71.99
57234;BME280;43090;52.604;13.318;2023-04-25T03:50:14;100005.47;;;9.49;73.26
57234;BME280;43090;52.604;13.318;2023-04-25T03:52:43;100007.91;;;9.86;72.55
57234;BME280;43090;52.604;13.318;2023-04-25T03:55:10;99987.34;;;9.41;70.68
57234;BME280;43090;52.604;13.318;2023-04-25T03:57:36;99987.47;;;9.51;71.90
57234;BME280;43090;52.604;13.318;2023-04-25T04:00:03;100009.34;;;9.67;71.54
57234;BME280;43090;52.604;13.318;2023-04-25T04:02:30;100011.44;;;9.75;71.53
57234;BME280;43090;52.604;13.318;2023-04-25T04:04:57;100016.41;;;9.69;70.35
57234;BME280;43090;52.604;13.318;2023-04-25T04:07:24;100014.94;;;9.87;70.92
57234;BME280;43090;52.604;13.318;2023-04-25T04:09:51;100015.81;;;9.65;71.23
57234;BME280;43090;52.604;13.318;2023-04-25T04:12:17;100012.50;;;9.61;71.31
57234;BME280;43090;52.604;13.318;2023-04-25T04:14:43;100026.75;;;9.62;70.90
57234;BME280;43090;52.604;13.318;2023-04-25T04:17:10;100033.66;;;9.53;70.50
57234;BME280;43090;52.604;13.318;2023-04-25T04:19:36;100023.81;;;9.42;71.38
57234;BME280;43090;52.604;13.318;2023-04-25T04:22:03;100017.09;;;9.37;72.58
57234;BME280;43090;52.604;13.318;2023-04-25T04:24:29;100022.84;;;9.66;70.87
57234;BME280;43090;52.604;13.318;2023-04-25T04:26:56;100041.53;;;9.55;70.77
57234;BME280;43090;52.604;13.318;2023-04-25T04:29:23;100034.81;;;9.38;72.09
57234;BME280;43090;52.604;13.318;2023-04-25T04:31:50;100042.63;;;9.52;71.49
57234;BME280;43090;52.604;13.318;2023-04-25T04:34:17;100023.41;;;9.24;71.13
57234;BME280;43090;52.604;13.318;2023-04-25T04:36:45;100046.25;;;9.51;71.35
57234;BME280;43090;52.604;13.318;2023-04-25T04:39:13;100038.03;;;9.54;71.54
57234;BME280;43090;52.604;13.318;2023-04-25T04:41:39;100035.94;;;9.58;70.76
57234;BME280;43090;52.604;13.318;2023-04-25T04:44:06;100038.16;;;9.75;70.40
57234;BME280;43090;52.604;13.318;2023-04-25T04:46:35;100034.81;;;9.38;71.30
57234;BME280;43090;52.604;13.318;2023-04-25T04:49:09;100044.59;;;9.50;72.43
57234;BME280;43090;52.604;13.318;2023-04-25T04:51:36;100047.25;;;9.50;70.88
57234;BME280;43090;52.604;13.318;2023-04-25T04:54:03;100042.50;;;9.42;71.56
57234;BME280;43090;52.604;13.318;2023-04-25T04:56:30;100050.66;;;9.52;70.65
57234;BME280;43090;52.604;13.318;2023-04-25T04:58:59;100040.38;;;9.23;71.05
57234;BME280;43090;52.604;13.318;2023-04-25T05:01:26;100048.13;;;9.62;72.97
57234;BME280;43090;52.604;13.318;2023-04-25T05:03:52;100051.84;;;9.48;72.10
57234;BME280;43090;52.604;13.318;2023-04-25T05:06:20;100041.81;;;9.74;70.78
57234;BME280;43090;52.604;13.318;2023-04-25T05:08:47;100057.47;;;9.67;71.47
57234;BME280;43090;52.604;13.318;2023-04-25T05:11:13;100051.03;;;9.70;71.37
57234;BME280;43090;52.604;13.318;2023-04-25T05:13:40;100049.19;;;9.93;71.20
57234;BME280;43090;52.604;13.318;2023-04-25T05:16:06;100048.63;;;9.90;70.27
57234;BME280;43090;52.604;13.318;2023-04-25T05:18:33;100050.06;;;9.82;71.77
57234;BME280;43090;52.604;13.318;2023-04-25T05:20:59;100050.88;;;9.60;70.81
57234;BME280;43090;52.604;13.318;2023-04-25T05:23:26;100048.84;;;9.75;70.26
57234;BME280;43090;52.604;13.318;2023-04-25T05:25:54;100041.19;;;9.71;70.00
57234;BME280;43090;52.604;13.318;2023-04-25T05:28:20;100044.09;;;9.56;70.40
57234;BME280;43090;52.604;13.318;2023-04-25T05:30:47;100063.44;;;9.71;70.04
57234;BME280;43090;52.604;13.318;2023-04-25T05:33:13;100044.09;;;9.56;70.78
57234;BME280;43090;52.604;13.318;2023-04-25T05:35:40;100066.13;;;9.71;71.87
57234;BME280;43090;52.604;13.318;2023-04-25T05:38:07;100053.81;;;9.80;73.92
57234;BME280;43090;52.604;13.318;2023-04-25T05:40:34;100050.41;;;9.66;71.33
57234;BME280;43090;52.604;13.318;2023-04-25T05:43:01;100065.97;;;9.50;71.51
57234;BME280;43090;52.604;13.318;2023-04-25T05:45:27;100066.88;;;9.38;72.36
57234;BME280;43090;52.604;13.318;2023-04-25T05:47:54;100064.75;;;9.65;71.40
57234;BME280;43090;52.604;13.318;2023-04-25T05:50:20;100053.69;;;9.59;71.59
57234;BME280;43090;52.604;13.318;2023-04-25T05:52:47;100067.88;;;9.48;73.36
57234;BME280;43090;52.604;13.318;2023-04-25T05:55:13;100074.34;;;9.68;73.73
57234;BME280;43090;52.604;13.318;2023-04-25T05:57:43;100066.34;;;9.68;72.13
57234;BME280;43090;52.604;13.318;2023-04-25T06:00:12;100068.19;;;9.90;72.38
57234;BME280;43090;52.604;13.318;2023-04-25T06:02:39;100080.69;;;9.78;72.35
57234;BME280;43090;52.604;13.318;2023-04-25T06:05:06;100071.91;;;9.76;71.40
57234;BME280;43090;52.604;13.318;2023-04-25T06:07:33;100082.38;;;9.68;72.52
57234;BME280;43090;52.604;13.318;2023-04-25T06:10:00;100084.81;;;9.71;73.23
57234;BME280;43090;52.604;13.318;2023-04-25T06:12:27;100073.50;;;9.67;73.95
57234;BME280;43090;52.604;13.318;2023-04-25T06:14:53;100076.44;;;9.76;72.62
57234;BME280;43090;52.604;13.318;2023-04-25T06:17:20;100090.25;;;9.58;73.08
57234;BME280;43090;52.604;13.318;2023-04-25T06:19:47;100099.94;;;9.48;73.54
57234;BME280;43090;52.604;13.318;2023-04-25T06:22:13;100099.28;;;9.69;72.13
57234;BME280;43090;52.604;13.318;2023-04-25T06:24:39;100092.00;;;9.82;73.34
57234;BME280;43090;52.604;13.318;2023-04-25T06:27:06;100095.84;;;9.66;73.34
57234;BME280;43090;52.604;13.318;2023-04-25T06:29:32;100084.38;;;9.42;74.70
57234;BME280;43090;52.604;13.318;2023-04-25T06:31:59;100089.91;;;9.16;74.90
57234;BME280;43090;52.604;13.318;2023-04-25T06:34:25;100086.50;;;9.14;74.71
57234;BME280;43090;52.604;13.318;2023-04-25T06:36:52;100103.38;;;9.50;74.06
57234;BME280;43090;52.604;13.318;2023-04-25T06:39:18;100095.44;;;9.48;74.77
57234;BME280;43090;52.604;13.318;2023-04-25T06:41:46;100087.34;;;9.50;76.08
57234;BME280;43090;52.604;13.318;2023-04-25T06:44:12;100075.19;;;9.46;74.40
57234;BME280;43090;52.604;13.318;2023-04-25T06:46:39;100090.13;;;9.60;75.16
57234;BME280;43090;52.604;13.318;2023-04-25T06:49:06;100100.25;;;9.67;74.24
57234;BME280;43090;52.604;13.318;2023-04-25T06:51:32;100097.91;;;9.63;75.07
57234;BME280;43090;52.604;13.318;2023-04-25T06:53:59;100109.31;;;9.54;75.59
57234;BME280;43090;52.604;13.318;2023-04-25T06:56:26;100100.66;;;9.39;75.40
57234;BME280;43090;52.604;13.318;2023-04-25T06:58:52;100103.38;;;9.14;75.88
57234;BME280;43090;52.604;13.318;2023-04-25T07:01:19;100110.69;;;8.99;76.85
57234;BME280;43090;52.604;13.318;2023-04-25T07:03:48;100118.72;;;9.35;78.00
57234;BME280;43090;52.604;13.318;2023-04-25T07:06:14;100120.63;;;9.22;77.70
57234;BME280;43090;52.604;13.318;2023-04-25T07:08:41;100095.19;;;9.05;76.65
57234;BME280;43090;52.604;13.318;2023-04-25T07:11:07;100108.25;;;9.21;77.36
57234;BME280;43090;52.604;13.318;2023-04-25T07:13:34;100113.25;;;9.25;77.22
57234;BME280;43090;52.604;13.318;2023-04-25T07:16:00;100110.72;;;9.35;76.73
57234;BME280;43090;52.604;13.318;2023-04-25T07:18:27;100108.09;;;9.46;77.88
57234;BME280;43090;52.604;13.318;2023-04-25T07:20:53;100115.28;;;9.22;76.29
57234;BME280;43090;52.604;13.318;2023-04-25T07:23:20;100125.06;;;9.34;76.44
57234;BME280;43090;52.604;13.318;2023-04-25T07:25:46;100127.75;;;9.34;74.90
57234;BME280;43090;52.604;13.318;2023-04-25T07:28:13;100138.19;;;9.37;75.33
57234;BME280;43090;52.604;13.318;2023-04-25T07:30:39;100140.00;;;9.37;75.06
57234;BME280;43090;52.604;13.318;2023-04-25T07:33:06;100136.13;;;9.41;74.53
57234;BME280;43090;52.604;13.318;2023-04-25T07:35:32;100147.72;;;9.64;74.04
57234;BME280;43090;52.604;13.318;2023-04-25T07:37:59;100134.88;;;9.33;73.50
57234;BME280;43090;52.604;13.318;2023-04-25T07:40:25;100136.22;;;9.28;72.23
57234;BME280;43090;52.604;13.318;2023-04-25T07:42:52;100142.44;;;9.40;71.73
57234;BME280;43090;52.604;13.318;2023-04-25T07:45:18;100152.56;;;9.23;71.60
57234;BME280;43090;52.604;13.318;2023-04-25T07:47:45;100168.22;;;9.52;69.78
57234;BME280;43090;52.604;13.318;2023-04-25T07:50:11;100156.22;;;9.22;70.52
57234;BME280;43090;52.604;13.318;2023-04-25T07:52:38;100161.09;;;9.53;69.93
57234;BME280;43090;52.604;13.318;2023-04-25T07:55:05;100146.41;;;9.70;69.66
57234;BME280;43090;52.604;13.318;2023-04-25T07:57:31;100171.41;;;10.15;68.31
57234;BME280;43090;52.604;13.318;2023-04-25T07:59:57;100166.91;;;10.27;69.21
57234;BME280;43090;52.604;13.318;2023-04-25T08:02:24;100161.09;;;10.45;67.59
57234;BME280;43090;52.604;13.318;2023-04-25T08:04:54;100157.91;;;10.28;66.11
57234;BME280;43090;52.604;13.318;2023-04-25T08:07:21;100174.97;;;10.39;65.01
57234;BME280;43090;52.604;13.318;2023-04-25T08:09:48;100180.13;;;10.06;65.75
57234;BME280;43090;52.604;13.318;2023-04-25T08:12:14;100185.56;;;9.82;67.12
57234;BME280;43090;52.604;13.318;2023-04-25T08:14:41;100158.50;;;10.21;66.66
57234;BME280;43090;52.604;13.318;2023-04-25T08:17:07;100187.63;;;10.48;68.04
57234;BME280;43090;52.604;13.318;2023-04-25T08:19:34;100180.03;;;10.30;68.24
57234;BME280;43090;52.604;13.318;2023-04-25T08:22:00;100199.03;;;10.50;67.58
57234;BME280;43090;52.604;13.318;2023-04-25T08:24:27;100194.28;;;10.31;66.36
57234;BME280;43090;52.604;13.318;2023-04-25T08:26:53;100208.25;;;10.23;68.38
57234;BME280;43090;52.604;13.318;2023-04-25T08:29:20;100200.31;;;10.10;65.44
57234;BME280;43090;52.604;13.318;2023-04-25T08:31:46;100195.66;;;10.48;66.18
57234;BME280;43090;52.604;13.318;2023-04-25T08:34:14;100221.88;;;10.20;65.44
57234;BME280;43090;52.604;13.318;2023-04-25T08:36:41;100219.44;;;10.06;62.36
57234;BME280;43090;52.604;13.318;2023-04-25T08:39:07;100216.09;;;10.72;61.71
57234;BME280;43090;52.604;13.318;2023-04-25T08:41:36;100215.66;;;11.10;58.55
57234;BME280;43090;52.604;13.318;2023-04-25T08:44:03;100231.66;;;10.89;60.28
57234;BME280;43090;52.604;13.318;2023-04-25T08:46:31;100227.50;;;10.85;56.69
57234;BME280;43090;52.604;13.318;2023-04-25T08:49:01;100228.44;;;11.07;55.97
57234;BME280;43090;52.604;13.318;2023-04-25T08:51:31;100222.41;;;10.71;56.18
57234;BME280;43090;52.604;13.318;2023-04-25T08:54:10;100241.88;;;10.95;56.86
57234;BME280;43090;52.604;13.318;2023-04-25T08:57:03;100223.69;;;11.10;57.32
57234;BME280;43090;52.604;13.318;2023-04-25T08:59:31;100238.41;;;11.16;57.51
57234;BME280;43090;52.604;13.318;2023-04-25T09:01:58;100227.63;;;11.39;55.39
57234;BME280;43090;52.604;13.318;2023-04-25T09:04:25;100232.75;;;11.42;52.64
57234;BME280;43090;52.604;13.318;2023-04-25T09:06:51;100239.03;;;11.52;54.18
57234;BME280;43090;52.604;13.318;2023-04-25T09:09:18;100237.41;;;11.28;52.72
57234;BME280;43090;52.604;13.318;2023-04-25T09:11:44;100219.97;;;11.34;50.41
57234;BME280;43090;52.604;13.318;2023-04-25T09:14:21;100238.25;;;11.61;52.73
57234;BME280;43090;52.604;13.318;2023-04-25T09:16:58;100253.47;;;11.72;52.78
57234;BME280;43090;52.604;13.318;2023-04-25T09:19:30;100252.09;;;11.45;52.40
57234;BME280;43090;52.604;13.318;2023-04-25T09:22:07;100237.47;;;11.71;51.85
57234;BME280;43090;52.604;13.318;2023-04-25T09:24:43;100236.97;;;11.77;51.16
57234;BME280;43090;52.604;13.318;2023-04-25T09:27:16;100243.38;;;11.64;51.58
57234;BME280;43090;52.604;13.318;2023-04-25T09:29:44;100244.63;;;11.60;49.72
57234;BME280;43090;52.604;13.318;2023-04-25T09:32:23;100256.03;;;11.74;47.60
57234;BME280;43090;52.604;13.318;2023-04-25T09:34:52;100262.81;;;10.79;47.78
57234;BME280;43090;52.604;13.318;2023-04-25T09:37:26;100267.19;;;10.69;50.46
57234;BME280;43090;52.604;13.318;2023-04-25T09:39:58;100267.41;;;10.54;49.90
57234;BME280;43090;52.604;13.318;2023-04-25T09:42:32;100259.91;;;10.48;49.41
57234;BME280;43090;52.604;13.318;2023-04-25T09:45:01;100272.13;;;11.30;50.89
57234;BME280;43090;52.604;13.318;2023-04-25T09:47:28;100272.22;;;11.40;49.72
57234;BME280;43090;52.604;13.318;2023-04-25T09:49:55;100279.41;;;11.39;48.23
57234;BME280;43090;52.604;13.318;2023-04-25T09:52:23;100270.28;;;11.42;49.19
57234;BME280;43090;52.604;13.318;2023-04-25T09:54:52;100271.59;;;11.36;48.96
57234;BME280;43090;52.604;13.318;2023-04-25T09:57:20;100271.03;;;11.65;49.24
57234;BME280;43090;52.604;13.318;2023-04-25T09:59:49;100269.00;;;11.90;46.09
57234;BME280;43090;52.604;13.318;2023-04-25T10:02:19;100261.44;;;11.95;47.81
57234;BME280;43090;52.604;13.318;2023-04-25T10:04:52;100276.16;;;12.22;45.08
57234;BME280;43090;52.604;13.318;2023-04-25T10:07:23;100280.88;;;12.29;46.26
57234;BME280;43090;52.604;13.318;2023-04-25T10:09:59;100267.06;;;12.34;43.18
57234;BME280;43090;52.604;13.318;2023-04-25T10:12:31;100267.59;;;11.42;44.80
57234;BME280;43090;52.604;13.318;2023-04-25T10:14:59;100279.13;;;11.86;46.72
57234;BME280;43090;52.604;13.318;2023-04-25T10:17:27;100275.66;;;11.30;45.80
57234;BME280;43090;52.604;13.318;2023-04-25T10:19:54;100292.31;;;11.45;46.02
57234;BME280;43090;52.604;13.318;2023-04-25T10:22:42;100285.75;;;11.38;47.12
57234;BME280;43090;52.604;13.318;2023-04-25T10:25:10;100270.94;;;11.11;45.74
57234;BME280;43090;52.604;13.318;2023-04-25T10:27:38;100292.41;;;11.55;46.24
57234;BME280;43090;52.604;13.318;2023-04-25T10:30:10;100295.22;;;11.54;44.34
57234;BME280;43090;52.604;13.318;2023-04-25T10:32:42;100290.31;;;11.04;43.19
57234;BME280;43090;52.604;13.318;2023-04-25T10:35:23;100285.44;;;11.09;46.55
57234;BME280;43090;52.604;13.318;2023-04-25T10:38:09;100291.63;;;11.09;46.80
57234;BME280;43090;52.604;13.318;2023-04-25T10:40:36;100288.09;;;11.20;45.08
57234;BME280;43090;52.604;13.318;2023-04-25T10:45:59;100292.56;;;11.42;45.20
57234;BME280;43090;52.604;13.318;2023-04-25T10:48:30;100287.72;;;11.69;44.59
57234;BME280;43090;52.604;13.318;2023-04-25T10:51:07;100306.19;;;12.15;43.56
57234;BME280;43090;52.604;13.318;2023-04-25T10:53:34;100310.06;;;12.02;43.74
57234;BME280;43090;52.604;13.318;2023-04-25T10:56:09;100306.00;;;11.08;42.50
57234;BME280;43090;52.604;13.318;2023-04-25T10:58:41;100312.28;;;11.41;47.27
57234;BME280;43090;52.604;13.318;2023-04-25T11:01:08;100324.63;;;10.87;46.49
57234;BME280;43090;52.604;13.318;2023-04-25T11:03:41;100328.41;;;10.50;47.71
57234;BME280;43090;52.604;13.318;2023-04-25T11:09:10;100340.91;;;10.39;46.74
57234;BME280;43090;52.604;13.318;2023-04-25T11:11:38;100344.00;;;9.97;47.60
57234;BME280;43090;52.604;13.318;2023-04-25T11:14:05;100350.88;;;10.12;47.35
57234;BME280;43090;52.604;13.318;2023-04-25T11:16:31;100354.16;;;10.52;52.13
57234;BME280;43090;52.604;13.318;2023-04-25T11:18:58;100357.34;;;10.21;45.30
57234;BME280;43090;52.604;13.318;2023-04-25T11:21:25;100364.34;;;10.35;46.91
57234;BME280;43090;52.604;13.318;2023-04-25T11:23:58;100361.84;;;10.67;46.91
57234;BME280;43090;52.604;13.318;2023-04-25T11:26:25;100350.31;;;10.56;46.41
57234;BME280;43090;52.604;13.318;2023-04-25T11:28:57;100370.72;;;10.21;41.62
57234;BME280;43090;52.604;13.318;2023-04-25T11:31:24;100365.19;;;10.94;43.87
57234;BME280;43090;52.604;13.318;2023-04-25T11:33:53;100372.25;;;10.83;42.69
57234;BME280;43090;52.604;13.318;2023-04-25T11:36:22;100374.00;;;10.49;43.53
57234;BME280;43090;52.604;13.318;2023-04-25T11:38:50;100353.88;;;10.08;43.49
57234;BME280;43090;52.604;13.318;2023-04-25T11:41:18;100350.56;;;10.64;44.87
57234;BME280;43090;52.604;13.318;2023-04-25T11:43:45;100387.66;;;10.69;43.07
57234;BME280;43090;52.604;13.318;2023-04-25T11:46:12;100376.72;;;10.60;47.11
57234;BME280;43090;52.604;13.318;2023-04-25T11:48:39;100385.75;;;10.82;44.92
57234;BME280;43090;52.604;13.318;2023-04-25T11:51:06;100383.53;;;10.64;46.96
57234;BME280;43090;52.604;13.318;2023-04-25T11:53:33;100379.94;;;11.11;44.94
57234;BME280;43090;52.604;13.318;2023-04-25T11:55:59;100376.59;;;10.62;43.18
57234;BME280;43090;52.604;13.318;2023-04-25T11:58:26;100387.91;;;10.77;44.49
57234;BME280;43090;52.604;13.318;2023-04-25T12:00:53;100394.03;;;10.79;46.77
57234;BME280;43090;52.604;13.318;2023-04-25T12:03:20;100386.63;;;10.82;44.90
57234;BME280;43090;52.604;13.318;2023-04-25T12:05:50;100397.78;;;10.76;47.11
57234;BME280;43090;52.604;13.318;2023-04-25T12:08:17;100380.41;;;10.93;45.26
57234;BME280;43090;52.604;13.318;2023-04-25T12:10:45;100385.50;;;10.62;45.52
57234;BME280;43090;52.604;13.318;2023-04-25T12:13:23;100382.31;;;10.57;45.07
57234;BME280;43090;52.604;13.318;2023-04-25T12:15:51;100378.47;;;10.84;44.84
57234;BME280;43090;52.604;13.318;2023-04-25T12:18:23;100389.19;;;11.07;46.21
57234;BME280;43090;52.604;13.318;2023-04-25T12:20:49;100375.56;;;11.32;45.13
57234;BME280;43090;52.604;13.318;2023-04-25T12:23:16;100383.94;;;11.16;43.04
57234;BME280;43090;52.604;13.318;2023-04-25T12:25:44;100382.25;;;11.04;44.91
57234;BME280;43090;52.604;13.318;2023-04-25T12:28:21;100396.81;;;10.89;45.46
57234;BME280;43090;52.604;13.318;2023-04-25T12:30:54;100400.41;;;11.23;43.80
57234;BME280;43090;52.604;13.318;2023-04-25T12:33:25;100393.94;;;11.26;45.21
57234;BME280;43090;52.604;13.318;2023-04-25T12:35:54;100398.44;;;11.03;44.64
57234;BME280;43090;52.604;13.318;2023-04-25T12:40:47;100381.41;;;11.04;45.21
57234;BME280;43090;52.604;13.318;2023-04-25T12:43:14;100371.75;;;11.46;46.26
57234;BME280;43090;52.604;13.318;2023-04-25T12:45:41;100398.31;;;11.27;45.13
57234;BME280;43090;52.604;13.318;2023-04-25T12:48:07;100387.00;;;10.89;44.58
57234;BME280;43090;52.604;13.318;2023-04-25T12:50:34;100401.63;;;11.30;45.74
57234;BME280;43090;52.604;13.318;2023-04-25T12:53:00;100385.03;;;11.03;46.32
57234;BME280;43090;52.604;13.318;2023-04-25T12:55:27;100389.19;;;11.18;47.45
57234;BME280;43090;52.604;13.318;2023-04-25T12:57:53;100395.50;;;11.28;43.48
57234;BME280;43090;52.604;13.318;2023-04-25T13:00:20;100403.03;;;11.69;43.42
57234;BME280;43090;52.604;13.318;2023-04-25T13:02:46;100387.13;;;11.99;42.88
57234;BME280;43090;52.604;13.318;2023-04-25T13:05:13;100379.09;;;11.88;42.04
57234;BME280;43090;52.604;13.318;2023-04-25T13:07:39;100392.09;;;11.60;45.25
57234;BME280;43090;52.604;13.318;2023-04-25T13:10:07;100387.09;;;11.67;43.84
57234;BME280;43090;52.604;13.318;2023-04-25T13:12:33;100400.88;;;11.40;41.96
57234;BME280;43090;52.604;13.318;2023-04-25T13:15:00;100391.88;;;11.07;44.22